sensor_id;sensor_type;location;lat;lon;timestamp;temperature;humidity
39493;DHT22;25176;51.060;3.720;2023-04-15T00:01:19;13.60;78.20
39493;DHT22;25176;51.060;3.720;2023-04-15T00:03:45;13.60;77.90
39493;DHT22;25176;51.060;3.720;2023-04-15T00:06:11;13.60;77.40
39493;DHT22;25176;51.060;3.720;2023-04-15T00:08:38;13.60;77.40
39493;DHT22;25176;51.060;3.720;2023-04-15T00:11:04;13.60;77.50
39493;DHT22;25176;51.060;3.720;2023-04-15T00:13:30;13.60;77.30
39493;DHT22;25176;51.060;3.720;2023-04-15T00:15:58;13.70;77.20
39493;DHT22;25176;51.060;3.720;2023-04-15T00:18:23;13.70;77.10
39493;DHT22;25176;51.060;3.720;2023-04-15T00:20:49;13.70;77.20
39493;DHT22;25176;51.060;3.720;2023-04-15T00:23:14;13.60;77.60
39493;DHT22;25176;51.060;3.720;2023-04-15T00:25:40;13.50;78.60
39493;DHT22;25176;51.060;3.720;2023-04-15T00:28:06;13.40;79.30
39493;DHT22;25176;51.060;3.720;2023-04-15T00:30:31;13.40;79.90
39493;DHT22;25176;51.060;3.720;2023-04-15T00:32:57;13.40;80.20
39493;DHT22;25176;51.060;3.720;2023-04-15T00:35:23;13.50;80.60
39493;DHT22;25176;51.060;3.720;2023-04-15T00:37:49;13.50;81.50
39493;DHT22;25176;51.060;3.720;2023-04-15T00:40:17;13.40;82.40
39493;DHT22;25176;51.060;3.720;2023-04-15T00:42:43;13.10;82.80
39493;DHT22;25176;51.060;3.720;2023-04-15T00:45:10;13.10;83.90
39493;DHT22;25176;51.060;3.720;2023-04-15T00:47:36;13.00;84.30
39493;DHT22;25176;51.060;3.720;2023-04-15T00:50:04;12.90;84.50
39493;DHT22;25176;51.060;3.720;2023-04-15T00:52:29;13.00;84.50
39493;DHT22;25176;51.060;3.720;2023-04-15T00:54:55;13.00;85.00
39493;DHT22;25176;51.060;3.720;2023-04-15T00:57:21;13.00;85.40
39493;DHT22;25176;51.060;3.720;2023-04-15T00:59:47;13.00;85.50
39493;DHT22;25176;51.060;3.720;2023-04-15T01:02:14;12.90;86.60
39493;DHT22;25176;51.060;3.720;2023-04-15T01:04:39;13.00;87.10
39493;DHT22;25176;51.060;3.720;2023-04-15T01:07:05;12.80;87.30
39493;DHT22;25176;51.060;3.720;2023-04-15T01:09:31;12.70;88.60
39493;DHT22;25176;51.060;3.720;2023-04-15T01:11:57;12.80;88.60
39493;DHT22;25176;51.060;3.720;2023-04-15T01:14:23;12.70;88.30
39493;DHT22;25176;51.060;3.720;2023-04-15T01:16:49;12.80;88.90
39493;DHT22;25176;51.060;3.720;2023-04-15T01:19:16;12.50;89.60
39493;DHT22;25176;51.060;3.720;2023-04-15T01:21:42;12.50;90.40
39493;DHT22;25176;51.060;3.720;2023-04-15T01:24:09;12.40;90.20
39493;DHT22;25176;51.060;3.720;2023-04-15T01:26:37;12.30;91.20
39493;DHT22;25176;51.060;3.720;2023-04-15T01:29:02;12.30;91.80
39493;DHT22;25176;51.060;3.720;2023-04-15T01:31:28;12.20;91.80
39493;DHT22;25176;51.060;3.720;2023-04-15T01:33:54;12.30;92.50
39493;DHT22;25176;51.060;3.720;2023-04-15T01:36:19;12.30;92.80
39493;DHT22;25176;51.060;3.720;2023-04-15T01:38:45;12.00;92.90
39493;DHT22;25176;51.060;3.720;2023-04-15T01:41:10;12.10;93.60
39493;DHT22;25176;51.060;3.720;2023-04-15T01:43:37;12.00;94.30
39493;DHT22;25176;51.060;3.720;2023-04-15T01:46:03;11.80;94.30
39493;DHT22;25176;51.060;3.720;2023-04-15T01:48:28;11.80;95.00
39493;DHT22;25176;51.060;3.720;2023-04-15T01:50:54;11.80;95.60
39493;DHT22;25176;51.060;3.720;2023-04-15T01:53:22;11.70;95.50
39493;DHT22;25176;51.060;3.720;2023-04-15T01:55:48;11.60;96.20
39493;DHT22;25176;51.060;3.720;2023-04-15T01:58:13;11.60;96.30
39493;DHT22;25176;51.060;3.720;2023-04-15T02:00:39;11.70;96.70
39493;DHT22;25176;51.060;3.720;2023-04-15T02:03:05;11.90;96.90
39493;DHT22;25176;51.060;3.720;2023-04-15T02:05:31;12.00;97.10
39493;DHT22;25176;51.060;3.720;2023-04-15T02:07:56;12.00;96.70
39493;DHT22;25176;51.060;3.720;2023-04-15T02:10:22;11.80;97.20
39493;DHT22;25176;51.060;3.720;2023-04-15T02:12:48;11.80;97.70
39493;DHT22;25176;51.060;3.720;2023-04-15T02:15:13;11.90;98.10
39493;DHT22;25176;51.060;3.720;2023-04-15T02:17:39;11.90;97.50
39493;DHT22;25176;51.060;3.720;2023-04-15T02:20:05;11.90;97.90
39493;DHT22;25176;51.060;3.720;2023-04-15T02:22:33;11.80;98.40
39493;DHT22;25176;51.060;3.720;2023-04-15T02:24:58;11.90;98.60
39493;DHT22;25176;51.060;3.720;2023-04-15T02:27:24;11.90;98.70
39493;DHT22;25176;51.060;3.720;2023-04-15T02:29:50;12.10;98.90
39493;DHT22;25176;51.060;3.720;2023-04-15T02:32:15;12.10;98.50
39493;DHT22;25176;51.060;3.720;2023-04-15T02:34:41;12.10;99.00
39493;DHT22;25176;51.060;3.720;2023-04-15T02:37:08;12.10;98.80
39493;DHT22;25176;51.060;3.720;2023-04-15T02:39:34;12.00;98.90
39493;DHT22;25176;51.060;3.720;2023-04-15T02:41:59;12.00;99.30
39493;DHT22;25176;51.060;3.720;2023-04-15T02:44:25;12.00;99.40
39493;DHT22;25176;51.060;3.720;2023-04-15T02:46:52;11.90;99.50
39493;DHT22;25176;51.060;3.720;2023-04-15T02:49:19;12.10;99.50
39493;DHT22;25176;51.060;3.720;2023-04-15T02:51:46;12.00;99.50
39493;DHT22;25176;51.060;3.720;2023-04-15T02:54:17;12.00;99.60
39493;DHT22;25176;51.060;3.720;2023-04-15T02:56:43;11.80;99.80
39493;DHT22;25176;51.060;3.720;2023-04-15T02:59:08;12.00;99.90
39493;DHT22;25176;51.060;3.720;2023-04-15T03:01:34;12.10;99.90
39493;DHT22;25176;51.060;3.720;2023-04-15T03:03:59;12.10;99.90
39493;DHT22;25176;51.060;3.720;2023-04-15T03:06:25;12.20;99.90
39493;DHT22;25176;51.060;3.720;2023-04-15T03:08:51;12.30;99.90
39493;DHT22;25176;51.060;3.720;2023-04-15T03:11:17;12.20;99.70
39493;DHT22;25176;51.060;3.720;2023-04-15T03:13:43;12.10;99.90
39493;DHT22;25176;51.060;3.720;2023-04-15T03:16:08;12.00;99.90
39493;DHT22;25176;51.060;3.720;2023-04-15T03:18:34;12.00;99.90
39493;DHT22;25176;51.060;3.720;2023-04-15T03:21:00;11.90;99.90
39493;DHT22;25176;51.060;3.720;2023-04-15T03:23:26;12.00;99.90
39493;DHT22;25176;51.060;3.720;2023-04-15T03:25:51;12.00;99.90
39493;DHT22;25176;51.060;3.720;2023-04-15T03:28:20;11.80;99.90
39493;DHT22;25176;51.060;3.720;2023-04-15T03:30:45;11.80;99.90
39493;DHT22;25176;51.060;3.720;2023-04-15T03:33:11;11.80;99.90
39493;DHT22;25176;51.060;3.720;2023-04-15T03:35:36;11.80;99.90
39493;DHT22;25176;51.060;3.720;2023-04-15T03:38:02;11.70;99.90
39493;DHT22;25176;51.060;3.720;2023-04-15T03:40:28;11.70;99.90
39493;DHT22;25176;51.060;3.720;2023-04-15T03:42:54;11.60;99.90
39493;DHT22;25176;51.060;3.720;2023-04-15T03:45:19;11.60;99.90
39493;DHT22;25176;51.060;3.720;2023-04-15T03:47:45;11.60;99.90
39493;DHT22;25176;51.060;3.720;2023-04-15T03:50:10;11.70;99.90
39493;DHT22;25176;51.060;3.720;2023-04-15T03:52:36;11.80;99.90
39493;DHT22;25176;51.060;3.720;2023-04-15T03:55:02;11.60;99.90
39493;DHT22;25176;51.060;3.720;2023-04-15T03:57:28;11.50;99.90
39493;DHT22;25176;51.060;3.720;2023-04-15T03:59:53;11.40;99.90
39493;DHT22;25176;51.060;3.720;2023-04-15T04:02:19;11.30;99.90
39493;DHT22;25176;51.060;3.720;2023-04-15T04:04:45;11.30;99.90
39493;DHT22;25176;51.060;3.720;2023-04-15T04:07:17;11.20;99.90
39493;DHT22;25176;51.060;3.720;2023-04-15T04:09:43;11.30;99.90
39493;DHT22;25176;51.060;3.720;2023-04-15T04:12:08;11.40;99.90
39493;DHT22;25176;51.060;3.720;2023-04-15T04:14:34;11.40;99.90
39493;DHT22;25176;51.060;3.720;2023-04-15T04:17:00;11.50;99.90
39493;DHT22;25176;51.060;3.720;2023-04-15T04:19:25;11.40;99.90
39493;DHT22;25176;51.060;3.720;2023-04-15T04:21:51;11.20;99.90
39493;DHT22;25176;51.060;3.720;2023-04-15T04:24:17;11.10;99.90
39493;DHT22;25176;51.060;3.720;2023-04-15T04:26:43;11.00;99.90
39493;DHT22;25176;51.060;3.720;2023-04-15T04:29:08;10.80;99.90
39493;DHT22;25176;51.060;3.720;2023-04-15T04:31:34;10.80;99.90
39493;DHT22;25176;51.060;3.720;2023-04-15T04:34:00;10.80;99.90
39493;DHT22;25176;51.060;3.720;2023-04-15T04:36:25;10.60;99.90
39493;DHT22;25176;51.060;3.720;2023-04-15T04:38:51;10.60;99.90
39493;DHT22;25176;51.060;3.720;2023-04-15T04:41:17;10.50;99.90
39493;DHT22;25176;51.060;3.720;2023-04-15T04:43:42;10.60;99.90
39493;DHT22;25176;51.060;3.720;2023-04-15T04:46:08;10.60;99.90
39493;DHT22;25176;51.060;3.720;2023-04-15T04:48:34;10.70;99.90
39493;DHT22;25176;51.060;3.720;2023-04-15T04:51:00;10.70;99.90
39493;DHT22;25176;51.060;3.720;2023-04-15T04:53:26;10.80;99.90
39493;DHT22;25176;51.060;3.720;2023-04-15T04:55:52;10.90;99.90
39493;DHT22;25176;51.060;3.720;2023-04-15T04:58:18;10.90;99.90
39493;DHT22;25176;51.060;3.720;2023-04-15T05:00:43;10.90;99.90
39493;DHT22;25176;51.060;3.720;2023-04-15T05:03:09;11.00;99.90
39493;DHT22;25176;51.060;3.720;2023-04-15T05:05:34;11.10;99.90
39493;DHT22;25176;51.060;3.720;2023-04-15T05:08:01;11.10;99.90
39493;DHT22;25176;51.060;3.720;2023-04-15T05:10:27;11.10;99.90
39493;DHT22;25176;51.060;3.720;2023-04-15T05:12:52;11.10;99.90
39493;DHT22;25176;51.060;3.720;2023-04-15T05:15:18;11.20;99.90
39493;DHT22;25176;51.060;3.720;2023-04-15T05:17:43;11.10;99.90
39493;DHT22;25176;51.060;3.720;2023-04-15T05:20:10;11.00;99.90
39493;DHT22;25176;51.060;3.720;2023-04-15T05:22:36;11.10;99.90
39493;DHT22;25176;51.060;3.720;2023-04-15T05:25:01;11.30;99.90
39493;DHT22;25176;51.060;3.720;2023-04-15T05:27:27;11.40;99.90
39493;DHT22;25176;51.060;3.720;2023-04-15T05:29:53;11.50;99.90
39493;DHT22;25176;51.060;3.720;2023-04-15T05:32:18;11.50;99.90
39493;DHT22;25176;51.060;3.720;2023-04-15T05:34:44;11.50;99.90
39493;DHT22;25176;51.060;3.720;2023-04-15T05:37:09;11.60;99.90
39493;DHT22;25176;51.060;3.720;2023-04-15T05:39:35;11.50;99.90
39493;DHT22;25176;51.060;3.720;2023-04-15T05:42:01;11.60;99.90
39493;DHT22;25176;51.060;3.720;2023-04-15T05:44:26;11.70;99.90
39493;DHT22;25176;51.060;3.720;2023-04-15T05:46:52;11.80;99.90
39493;DHT22;25176;51.060;3.720;2023-04-15T05:49:17;11.80;99.90
39493;DHT22;25176;51.060;3.720;2023-04-15T05:51:43;12.00;99.90
39493;DHT22;25176;51.060;3.720;2023-04-15T05:54:08;12.10;99.90
39493;DHT22;25176;51.060;3.720;2023-04-15T05:56:34;12.00;99.90
39493;DHT22;25176;51.060;3.720;2023-04-15T05:58:59;12.00;99.90
39493;DHT22;25176;51.060;3.720;2023-04-15T06:01:26;12.00;99.90
39493;DHT22;25176;51.060;3.720;2023-04-15T06:03:52;12.00;99.90
39493;DHT22;25176;51.060;3.720;2023-04-15T06:06:17;12.10;99.90
39493;DHT22;25176;51.060;3.720;2023-04-15T06:08:43;11.90;99.90
39493;DHT22;25176;51.060;3.720;2023-04-15T06:11:08;11.90;99.90
39493;DHT22;25176;51.060;3.720;2023-04-15T06:13:34;12.10;99.90
39493;DHT22;25176;51.060;3.720;2023-04-15T06:15:59;12.20;99.90
39493;DHT22;25176;51.060;3.720;2023-04-15T06:18:25;12.30;99.90
39493;DHT22;25176;51.060;3.720;2023-04-15T06:20:51;12.20;99.90
39493;DHT22;25176;51.060;3.720;2023-04-15T06:23:16;12.10;99.90
39493;DHT22;25176;51.060;3.720;2023-04-15T06:25:42;12.10;99.90
39493;DHT22;25176;51.060;3.720;2023-04-15T06:28:07;12.30;99.90
39493;DHT22;25176;51.060;3.720;2023-04-15T06:30:33;12.50;99.90
39493;DHT22;25176;51.060;3.720;2023-04-15T06:33:00;12.60;99.90
39493;DHT22;25176;51.060;3.720;2023-04-15T06:35:27;12.80;99.90
39493;DHT22;25176;51.060;3.720;2023-04-15T06:37:53;12.90;99.90
39493;DHT22;25176;51.060;3.720;2023-04-15T06:40:18;13.00;99.90
39493;DHT22;25176;51.060;3.720;2023-04-15T06:42:44;13.10;99.90
39493;DHT22;25176;51.060;3.720;2023-04-15T06:45:10;13.30;99.90
39493;DHT22;25176;51.060;3.720;2023-04-15T06:47:36;13.40;99.90
39493;DHT22;25176;51.060;3.720;2023-04-15T06:50:01;13.50;99.90
39493;DHT22;25176;51.060;3.720;2023-04-15T06:52:28;13.70;99.90
39493;DHT22;25176;51.060;3.720;2023-04-15T06:54:53;13.90;99.90
39493;DHT22;25176;51.060;3.720;2023-04-15T06:57:19;13.90;99.90
39493;DHT22;25176;51.060;3.720;2023-04-15T06:59:45;14.10;99.90
39493;DHT22;25176;51.060;3.720;2023-04-15T07:02:12;14.30;99.70
39493;DHT22;25176;51.060;3.720;2023-04-15T07:04:38;14.40;99.10
39493;DHT22;25176;51.060;3.720;2023-04-15T07:07:04;14.70;99.10
39493;DHT22;25176;51.060;3.720;2023-04-15T07:09:30;15.00;99.10
39493;DHT22;25176;51.060;3.720;2023-04-15T07:11:56;14.90;98.10
39493;DHT22;25176;51.060;3.720;2023-04-15T07:14:22;15.20;97.60
39493;DHT22;25176;51.060;3.720;2023-04-15T07:16:47;14.90;97.70
39493;DHT22;25176;51.060;3.720;2023-04-15T07:19:13;14.90;97.90
39493;DHT22;25176;51.060;3.720;2023-04-15T07:21:38;14.70;97.60
39493;DHT22;25176;51.060;3.720;2023-04-15T07:24:04;15.10;97.60
39493;DHT22;25176;51.060;3.720;2023-04-15T07:26:30;15.50;97.10
39493;DHT22;25176;51.060;3.720;2023-04-15T07:28:55;15.50;96.20
39493;DHT22;25176;51.060;3.720;2023-04-15T07:31:21;14.80;96.70
39493;DHT22;25176;51.060;3.720;2023-04-15T07:33:47;14.70;97.10
39493;DHT22;25176;51.060;3.720;2023-04-15T07:36:12;14.70;97.50
39493;DHT22;25176;51.060;3.720;2023-04-15T07:38:38;14.50;97.20
39493;DHT22;25176;51.060;3.720;2023-04-15T07:41:04;14.00;95.80
39493;DHT22;25176;51.060;3.720;2023-04-15T07:43:29;13.70;95.60
39493;DHT22;25176;51.060;3.720;2023-04-15T07:45:55;13.80;95.90
39493;DHT22;25176;51.060;3.720;2023-04-15T07:48:20;14.00;95.40
39493;DHT22;25176;51.060;3.720;2023-04-15T07:50:46;14.30;95.20
39493;DHT22;25176;51.060;3.720;2023-04-15T07:53:12;14.30;94.60
39493;DHT22;25176;51.060;3.720;2023-04-15T07:55:38;14.10;94.70
39493;DHT22;25176;51.060;3.720;2023-04-15T07:58:04;13.80;94.80
39493;DHT22;25176;51.060;3.720;2023-04-15T08:00:29;13.90;95.00
39493;DHT22;25176;51.060;3.720;2023-04-15T08:02:55;14.30;95.10
39493;DHT22;25176;51.060;3.720;2023-04-15T08:05:21;14.70;94.20
39493;DHT22;25176;51.060;3.720;2023-04-15T08:07:47;14.90;93.70
39493;DHT22;25176;51.060;3.720;2023-04-15T08:10:13;15.10;92.80
39493;DHT22;25176;51.060;3.720;2023-04-15T08:12:39;14.90;92.50
39493;DHT22;25176;51.060;3.720;2023-04-15T08:15:05;15.30;92.30
39493;DHT22;25176;51.060;3.720;2023-04-15T08:17:32;16.40;91.90
39493;DHT22;25176;51.060;3.720;2023-04-15T08:19:58;17.00;88.50
39493;DHT22;25176;51.060;3.720;2023-04-15T08:22:23;18.10;86.00
39493;DHT22;25176;51.060;3.720;2023-04-15T08:24:49;17.90;82.60
39493;DHT22;25176;51.060;3.720;2023-04-15T08:27:15;17.10;83.80
39493;DHT22;25176;51.060;3.720;2023-04-15T08:29:41;17.70;82.80
39493;DHT22;25176;51.060;3.720;2023-04-15T08:32:07;17.70;82.20
39493;DHT22;25176;51.060;3.720;2023-04-15T08:34:34;18.80;80.00
39493;DHT22;25176;51.060;3.720;2023-04-15T08:36:59;19.00;77.20
39493;DHT22;25176;51.060;3.720;2023-04-15T08:39:25;18.70;77.40
39493;DHT22;25176;51.060;3.720;2023-04-15T08:42:05;18.80;77.30
39493;DHT22;25176;51.060;3.720;2023-04-15T08:44:33;18.90;77.60
39493;DHT22;25176;51.060;3.720;2023-04-15T08:47:01;18.60;76.80
39493;DHT22;25176;51.060;3.720;2023-04-15T08:49:28;18.90;76.70
39493;DHT22;25176;51.060;3.720;2023-04-15T08:51:54;19.20;76.50
39493;DHT22;25176;51.060;3.720;2023-04-15T08:54:22;18.40;77.00
39493;DHT22;25176;51.060;3.720;2023-04-15T08:56:47;18.00;78.30
39493;DHT22;25176;51.060;3.720;2023-04-15T08:59:14;18.10;77.90
39493;DHT22;25176;51.060;3.720;2023-04-15T09:01:41;18.20;78.80
39493;DHT22;25176;51.060;3.720;2023-04-15T09:04:07;18.20;77.60
39493;DHT22;25176;51.060;3.720;2023-04-15T09:06:33;18.70;76.60
39493;DHT22;25176;51.060;3.720;2023-04-15T09:08:59;18.30;77.10
39493;DHT22;25176;51.060;3.720;2023-04-15T09:11:25;18.30;76.70
39493;DHT22;25176;51.060;3.720;2023-04-15T09:13:51;18.20;75.90
39493;DHT22;25176;51.060;3.720;2023-04-15T09:16:17;18.10;74.30
39493;DHT22;25176;51.060;3.720;2023-04-15T09:18:43;17.90;77.00
39493;DHT22;25176;51.060;3.720;2023-04-15T09:21:10;17.50;77.00
39493;DHT22;25176;51.060;3.720;2023-04-15T09:23:38;17.30;78.50
39493;DHT22;25176;51.060;3.720;2023-04-15T09:26:05;17.40;78.10
39493;DHT22;25176;51.060;3.720;2023-04-15T09:28:31;17.60;79.10
39493;DHT22;25176;51.060;3.720;2023-04-15T09:33:23;18.40;78.20
39493;DHT22;25176;51.060;3.720;2023-04-15T09:36:00;18.20;77.00
39493;DHT22;25176;51.060;3.720;2023-04-15T09:38:26;18.60;76.50
39493;DHT22;25176;51.060;3.720;2023-04-15T09:40:51;18.40;76.50
39493;DHT22;25176;51.060;3.720;2023-04-15T09:43:17;18.50;76.00
39493;DHT22;25176;51.060;3.720;2023-04-15T09:45:50;18.50;75.40
39493;DHT22;25176;51.060;3.720;2023-04-15T09:48:24;18.80;75.10
39493;DHT22;25176;51.060;3.720;2023-04-15T09:50:56;18.50;74.50
39493;DHT22;25176;51.060;3.720;2023-04-15T09:53:23;18.80;74.90
39493;DHT22;25176;51.060;3.720;2023-04-15T09:55:56;18.40;74.60
39493;DHT22;25176;51.060;3.720;2023-04-15T10:00:49;18.20;75.90
39493;DHT22;25176;51.060;3.720;2023-04-15T10:03:22;18.50;76.50
39493;DHT22;25176;51.060;3.720;2023-04-15T10:05:49;19.10;74.30
39493;DHT22;25176;51.060;3.720;2023-04-15T10:08:17;19.20;74.30
39493;DHT22;25176;51.060;3.720;2023-04-15T10:10:44;19.50;74.90
39493;DHT22;25176;51.060;3.720;2023-04-15T10:13:16;22.10;71.10
39493;DHT22;25176;51.060;3.720;2023-04-15T10:15:43;23.60;67.40
39493;DHT22;25176;51.060;3.720;2023-04-15T10:18:10;24.00;64.70
39493;DHT22;25176;51.060;3.720;2023-04-15T10:20:37;24.40;62.80
39493;DHT22;25176;51.060;3.720;2023-04-15T10:23:03;23.90;62.30
39493;DHT22;25176;51.060;3.720;2023-04-15T10:25:29;23.80;62.70
39493;DHT22;25176;51.060;3.720;2023-04-15T10:27:55;24.10;61.40
39493;DHT22;25176;51.060;3.720;2023-04-15T10:30:22;23.60;60.90
39493;DHT22;25176;51.060;3.720;2023-04-15T10:32:48;23.70;60.40
39493;DHT22;25176;51.060;3.720;2023-04-15T10:35:15;25.30;57.70
39493;DHT22;25176;51.060;3.720;2023-04-15T10:37:42;23.40;57.50
39493;DHT22;25176;51.060;3.720;2023-04-15T10:40:30;22.20;59.40
39493;DHT22;25176;51.060;3.720;2023-04-15T10:42:58;21.30;60.10
39493;DHT22;25176;51.060;3.720;2023-04-15T10:45:35;20.50;60.40
39493;DHT22;25176;51.060;3.720;2023-04-15T10:48:03;20.10;62.20
39493;DHT22;25176;51.060;3.720;2023-04-15T10:50:31;20.30;61.80
39493;DHT22;25176;51.060;3.720;2023-04-15T10:52:57;19.70;64.00
39493;DHT22;25176;51.060;3.720;2023-04-15T10:55:25;19.50;63.10
39493;DHT22;25176;51.060;3.720;2023-04-15T10:57:57;18.30;63.40
39493;DHT22;25176;51.060;3.720;2023-04-15T11:00:30;17.90;63.30
39493;DHT22;25176;51.060;3.720;2023-04-15T11:02:58;17.60;62.80
39493;DHT22;25176;51.060;3.720;2023-04-15T11:05:50;17.20;64.10
39493;DHT22;25176;51.060;3.720;2023-04-15T11:08:16;17.10;65.70
39493;DHT22;25176;51.060;3.720;2023-04-15T11:15:40;16.40;64.60
39493;DHT22;25176;51.060;3.720;2023-04-15T11:18:20;16.40;63.20
39493;DHT22;25176;51.060;3.720;2023-04-15T11:20:54;16.30;64.20
39493;DHT22;25176;51.060;3.720;2023-04-15T11:23:43;16.40;59.80
39493;DHT22;25176;51.060;3.720;2023-04-15T11:26:11;16.40;61.60
39493;DHT22;25176;51.060;3.720;2023-04-15T11:28:38;16.30;63.80
39493;DHT22;25176;51.060;3.720;2023-04-15T11:31:26;16.30;64.70
39493;DHT22;25176;51.060;3.720;2023-04-15T11:33:56;16.20;64.60
39493;DHT22;25176;51.060;3.720;2023-04-15T11:36:27;16.20;64.20
39493;DHT22;25176;51.060;3.720;2023-04-15T11:38:53;16.10;61.70
39493;DHT22;25176;51.060;3.720;2023-04-15T11:41:20;15.80;61.20
39493;DHT22;25176;51.060;3.720;2023-04-15T11:43:46;15.60;58.30
39493;DHT22;25176;51.060;3.720;2023-04-15T11:46:12;15.70;58.00
39493;DHT22;25176;51.060;3.720;2023-04-15T11:48:44;15.80;62.20
39493;DHT22;25176;51.060;3.720;2023-04-15T11:51:11;15.90;60.60
39493;DHT22;25176;51.060;3.720;2023-04-15T11:53:39;15.90;60.90
39493;DHT22;25176;51.060;3.720;2023-04-15T11:56:07;15.80;61.80
39493;DHT22;25176;51.060;3.720;2023-04-15T11:58:35;15.80;63.70
39493;DHT22;25176;51.060;3.720;2023-04-15T12:01:04;15.80;62.00
39493;DHT22;25176;51.060;3.720;2023-04-15T12:03:38;15.90;60.20
39493;DHT22;25176;51.060;3.720;2023-04-15T12:09:07;15.80;60.70
39493;DHT22;25176;51.060;3.720;2023-04-15T12:16:38;15.80;63.90
39493;DHT22;25176;51.060;3.720;2023-04-15T12:19:08;15.80;64.00
39493;DHT22;25176;51.060;3.720;2023-04-15T12:21:37;15.90;65.80
39493;DHT22;25176;51.060;3.720;2023-04-15T12:24:04;15.90;64.50
39493;DHT22;25176;51.060;3.720;2023-04-15T12:26:34;15.90;62.10
39493;DHT22;25176;51.060;3.720;2023-04-15T12:29:04;16.00;63.20
39493;DHT22;25176;51.060;3.720;2023-04-15T12:31:31;15.90;63.30
39493;DHT22;25176;51.060;3.720;2023-04-15T12:33:58;15.90;62.30
39493;DHT22;25176;51.060;3.720;2023-04-15T12:36:25;16.10;62.00
39493;DHT22;25176;51.060;3.720;2023-04-15T12:38:50;16.00;61.00
39493;DHT22;25176;51.060;3.720;2023-04-15T12:41:16;16.00;62.50
39493;DHT22;25176;51.060;3.720;2023-04-15T12:43:44;16.10;63.60
39493;DHT22;25176;51.060;3.720;2023-04-15T12:46:10;16.10;63.80
39493;DHT22;25176;51.060;3.720;2023-04-15T12:48:35;16.10;61.60
39493;DHT22;25176;51.060;3.720;2023-04-15T12:51:03;15.90;61.30
39493;DHT22;25176;51.060;3.720;2023-04-15T12:53:31;15.90;61.80
39493;DHT22;25176;51.060;3.720;2023-04-15T12:55:57;16.00;61.30
39493;DHT22;25176;51.060;3.720;2023-04-15T12:58:22;16.00;61.70
39493;DHT22;25176;51.060;3.720;2023-04-15T13:00:48;15.90;63.10
39493;DHT22;25176;51.060;3.720;2023-04-15T13:03:14;15.90;64.10
39493;DHT22;25176;51.060;3.720;2023-04-15T13:05:40;15.90;63.60
39493;DHT22;25176;51.060;3.720;2023-04-15T13:08:06;15.90;63.20
39493;DHT22;25176;51.060;3.720;2023-04-15T13:10:32;15.80;63.20
39493;DHT22;25176;51.060;3.720;2023-04-15T13:12:58;15.80;62.80
39493;DHT22;25176;51.060;3.720;2023-04-15T13:15:23;16.00;60.40
39493;DHT22;25176;51.060;3.720;2023-04-15T13:17:50;16.00;60.60
39493;DHT22;25176;51.060;3.720;2023-04-15T13:20:16;16.00;59.90
39493;DHT22;25176;51.060;3.720;2023-04-15T13:22:42;16.00;61.90
39493;DHT22;25176;51.060;3.720;2023-04-15T13:25:08;15.90;63.00
39493;DHT22;25176;51.060;3.720;2023-04-15T13:27:33;16.00;62.60
39493;DHT22;25176;51.060;3.720;2023-04-15T13:29:59;15.90;62.50
39493;DHT22;25176;51.060;3.720;2023-04-15T13:32:25;15.90;62.20
39493;DHT22;25176;51.060;3.720;2023-04-15T13:34:51;16.00;62.00
39493;DHT22;25176;51.060;3.720;2023-04-15T13:37:16;16.10;61.20
39493;DHT22;25176;51.060;3.720;2023-04-15T13:39:42;16.10;61.60
39493;DHT22;25176;51.060;3.720;2023-04-15T13:42:08;16.30;63.00
39493;DHT22;25176;51.060;3.720;2023-04-15T13:44:34;16.40;63.40
39493;DHT22;25176;51.060;3.720;2023-04-15T13:46:59;16.30;66.00
39493;DHT22;25176;51.060;3.720;2023-04-15T13:49:25;16.20;70.20
39493;DHT22;25176;51.060;3.720;2023-04-15T13:51:51;16.00;72.00
39493;DHT22;25176;51.060;3.720;2023-04-15T13:54:16;16.20;73.80
39493;DHT22;25176;51.060;3.720;2023-04-15T13:56:42;16.20;73.50
39493;DHT22;25176;51.060;3.720;2023-04-15T13:59:07;16.20;73.80
39493;DHT22;25176;51.060;3.720;2023-04-15T14:01:34;16.30;74.00
39493;DHT22;25176;51.060;3.720;2023-04-15T14:03:59;16.30;74.40
39493;DHT22;25176;51.060;3.720;2023-04-15T14:06:25;16.10;71.60
39493;DHT22;25176;51.060;3.720;2023-04-15T14:08:53;16.10;72.40
39493;DHT22;25176;51.060;3.720;2023-04-15T14:11:19;16.00;73.80
39493;DHT22;25176;51.060;3.720;2023-04-15T14:13:44;15.80;74.50
39493;DHT22;25176;51.060;3.720;2023-04-15T14:16:10;15.60;75.30
39493;DHT22;25176;51.060;3.720;2023-04-15T14:18:35;15.80;75.50
39493;DHT22;25176;51.060;3.720;2023-04-15T14:21:02;15.90;75.80
39493;DHT22;25176;51.060;3.720;2023-04-15T14:23:28;15.80;76.60
39493;DHT22;25176;51.060;3.720;2023-04-15T14:25:53;15.90;76.90
39493;DHT22;25176;51.060;3.720;2023-04-15T14:28:19;15.80;76.10
39493;DHT22;25176;51.060;3.720;2023-04-15T14:30:44;15.80;75.40
39493;DHT22;25176;51.060;3.720;2023-04-15T14:33:10;15.70;76.80
39493;DHT22;25176;51.060;3.720;2023-04-15T14:35:36;15.60;76.20
39493;DHT22;25176;51.060;3.720;2023-04-15T14:38:02;15.70;77.20
39493;DHT22;25176;51.060;3.720;2023-04-15T14:40:27;15.60;78.00
39493;DHT22;25176;51.060;3.720;2023-04-15T14:42:53;15.70;78.10
39493;DHT22;25176;51.060;3.720;2023-04-15T14:45:18;15.80;77.00
39493;DHT22;25176;51.060;3.720;2023-04-15T14:47:44;15.70;76.60
39493;DHT22;25176;51.060;3.720;2023-04-15T14:50:10;15.80;76.30
39493;DHT22;25176;51.060;3.720;2023-04-15T14:52:35;15.80;76.20
39493;DHT22;25176;51.060;3.720;2023-04-15T14:55:12;15.80;75.90
39493;DHT22;25176;51.060;3.720;2023-04-15T14:57:39;15.80;75.70
39493;DHT22;25176;51.060;3.720;2023-04-15T15:00:06;15.80;75.40
39493;DHT22;25176;51.060;3.720;2023-04-15T15:02:33;15.60;76.30
39493;DHT22;25176;51.060;3.720;2023-04-15T15:05:00;15.60;76.90
39493;DHT22;25176;51.060;3.720;2023-04-15T15:07:26;15.60;75.60
39493;DHT22;25176;51.060;3.720;2023-04-15T15:09:52;15.60;75.00
39493;DHT22;25176;51.060;3.720;2023-04-15T15:12:17;15.60;74.00
39493;DHT22;25176;51.060;3.720;2023-04-15T15:14:43;15.60;73.30
39493;DHT22;25176;51.060;3.720;2023-04-15T15:17:09;15.30;68.20
39493;DHT22;25176;51.060;3.720;2023-04-15T15:19:35;15.10;66.50
39493;DHT22;25176;51.060;3.720;2023-04-15T15:22:01;15.20;66.10
39493;DHT22;25176;51.060;3.720;2023-04-15T15:24:27;15.00;66.90
39493;DHT22;25176;51.060;3.720;2023-04-15T15:26:52;14.80;68.40
39493;DHT22;25176;51.060;3.720;2023-04-15T15:29:18;14.80;67.80
39493;DHT22;25176;51.060;3.720;2023-04-15T15:31:44;14.80;69.20
39493;DHT22;25176;51.060;3.720;2023-04-15T15:34:09;14.80;69.40
39493;DHT22;25176;51.060;3.720;2023-04-15T15:36:35;14.80;69.70
39493;DHT22;25176;51.060;3.720;2023-04-15T15:39:01;14.70;71.10
39493;DHT22;25176;51.060;3.720;2023-04-15T15:41:26;14.80;71.90
39493;DHT22;25176;51.060;3.720;2023-04-15T15:43:52;14.80;72.40